sensor_id;sensor_type;location;lat;lon;timestamp;temperature;humidity
69009;SHT31;56065;52.472;13.380;2022-08-23T00:01:09;21.57;69.38
69009;SHT31;56065;52.472;13.380;2022-08-23T00:03:35;21.53;69.46
69009;SHT31;56065;52.472;13.380;2022-08-23T00:06:00;21.53;69.45
69009;SHT31;56065;52.472;13.380;2022-08-23T00:08:26;21.53;69.54
69009;SHT31;56065;52.472;13.380;2022-08-23T00:10:51;21.53;69.48
69009;SHT31;56065;52.472;13.380;2022-08-23T00:13:17;21.53;69.38
69009;SHT31;56065;52.472;13.380;2022-08-23T00:15:42;21.46;69.71
69009;SHT31;56065;52.472;13.380;2022-08-23T00:18:08;21.49;69.64
69009;SHT31;56065;52.472;13.380;2022-08-23T00:20:33;21.46;69.85
69009;SHT31;56065;52.472;13.380;2022-08-23T00:22:58;21.45;69.92
69009;SHT31;56065;52.472;13.380;2022-08-23T00:25:24;21.43;70.21
69009;SHT31;56065;52.472;13.380;2022-08-23T00:27:51;21.45;70.19
69009;SHT31;56065;52.472;13.380;2022-08-23T00:30:16;21.43;70.26
69009;SHT31;56065;52.472;13.380;2022-08-23T00:32:44;21.40;70.42
69009;SHT31;56065;52.472;13.380;2022-08-23T00:35:12;21.40;70.44
69009;SHT31;56065;52.472;13.380;2022-08-23T00:37:38;21.46;70.36
69009;SHT31;56065;52.472;13.380;2022-08-23T00:40:09;21.40;70.81
69009;SHT31;56065;52.472;13.380;2022-08-23T00:48:31;21.35;70.74
69009;SHT31;56065;52.472;13.380;2022-08-23T00:51:10;21.32;70.87
69009;SHT31;56065;52.472;13.380;2022-08-23T00:53:42;21.29;70.90
69009;SHT31;56065;52.472;13.380;2022-08-23T00:56:09;21.29;71.02
69009;SHT31;56065;52.472;13.380;2022-08-23T00:58:36;21.27;71.04
69009;SHT31;56065;52.472;13.380;2022-08-23T01:01:05;21.29;70.93
69009;SHT31;56065;52.472;13.380;2022-08-23T01:03:34;21.26;70.99
69009;SHT31;56065;52.472;13.380;2022-08-23T01:06:38;21.27;71.17
69009;SHT31;56065;52.472;13.380;2022-08-23T01:09:15;21.32;70.79
69009;SHT31;56065;52.472;13.380;2022-08-23T01:11:49;21.26;70.76
69009;SHT31;56065;52.472;13.380;2022-08-23T01:14:24;21.27;70.76
69009;SHT31;56065;52.472;13.380;2022-08-23T01:17:04;21.23;70.74
69009;SHT31;56065;52.472;13.380;2022-08-23T01:19:37;21.23;70.75
69009;SHT31;56065;52.472;13.380;2022-08-23T01:22:13;21.25;70.97
69009;SHT31;56065;52.472;13.380;2022-08-23T01:24:41;21.19;70.78
69009;SHT31;56065;52.472;13.380;2022-08-23T01:27:09;21.16;70.75
69009;SHT31;56065;52.472;13.380;2022-08-23T01:29:36;21.16;70.58
69009;SHT31;56065;52.472;13.380;2022-08-23T01:32:02;21.13;70.76
69009;SHT31;56065;52.472;13.380;2022-08-23T01:34:28;21.12;70.59
69009;SHT31;56065;52.472;13.380;2022-08-23T01:36:54;21.09;70.64
69009;SHT31;56065;52.472;13.380;2022-08-23T01:39:20;21.03;70.80
69009;SHT31;56065;52.472;13.380;2022-08-23T01:41:46;21.03;70.86
69009;SHT31;56065;52.472;13.380;2022-08-23T01:44:12;21.00;70.78
69009;SHT31;56065;52.472;13.380;2022-08-23T01:46:37;21.02;70.84
69009;SHT31;56065;52.472;13.380;2022-08-23T01:49:04;21.03;70.56
69009;SHT31;56065;52.472;13.380;2022-08-23T01:51:30;21.03;70.47
69009;SHT31;56065;52.472;13.380;2022-08-23T01:53:55;21.00;70.39
69009;SHT31;56065;52.472;13.380;2022-08-23T01:56:21;21.00;70.22
69009;SHT31;56065;52.472;13.380;2022-08-23T01:58:49;21.03;70.08
69009;SHT31;56065;52.472;13.380;2022-08-23T02:01:16;21.02;69.86
69009;SHT31;56065;52.472;13.380;2022-08-23T02:03:41;21.02;69.72
69009;SHT31;56065;52.472;13.380;2022-08-23T02:06:07;21.00;69.49
69009;SHT31;56065;52.472;13.380;2022-08-23T02:08:32;20.95;69.79
69009;SHT31;56065;52.472;13.380;2022-08-23T02:11:36;20.96;69.70
69009;SHT31;56065;52.472;13.380;2022-08-23T02:14:09;20.96;69.65
69009;SHT31;56065;52.472;13.380;2022-08-23T02:16:39;20.98;69.76
69009;SHT31;56065;52.472;13.380;2022-08-23T02:19:08;20.95;69.77
69009;SHT31;56065;52.472;13.380;2022-08-23T02:21:35;20.95;69.63
69009;SHT31;56065;52.472;13.380;2022-08-23T02:24:13;20.96;69.68
69009;SHT31;56065;52.472;13.380;2022-08-23T02:26:43;20.96;69.70
69009;SHT31;56065;52.472;13.380;2022-08-23T02:29:10;20.92;69.62
69009;SHT31;56065;52.472;13.380;2022-08-23T02:31:36;20.89;69.60
69009;SHT31;56065;52.472;13.380;2022-08-23T02:34:01;20.88;69.62
69009;SHT31;56065;52.472;13.380;2022-08-23T02:36:27;20.85;69.76
69009;SHT31;56065;52.472;13.380;2022-08-23T02:38:53;20.81;69.67
69009;SHT31;56065;52.472;13.380;2022-08-23T02:41:20;20.81;69.95
69009;SHT31;56065;52.472;13.380;2022-08-23T02:43:45;20.81;69.65
69009;SHT31;56065;52.472;13.380;2022-08-23T02:46:11;20.78;69.88
69009;SHT31;56065;52.472;13.380;2022-08-23T02:48:36;20.79;70.11
69009;SHT31;56065;52.472;13.380;2022-08-23T02:51:06;20.82;69.94
69009;SHT31;56065;52.472;13.380;2022-08-23T02:53:33;20.84;69.90
69009;SHT31;56065;52.472;13.380;2022-08-23T02:55:59;20.84;70.11
69009;SHT31;56065;52.472;13.380;2022-08-23T02:58:26;20.84;70.09
69009;SHT31;56065;52.472;13.380;2022-08-23T03:00:52;20.84;70.08
69009;SHT31;56065;52.472;13.380;2022-08-23T03:03:18;20.85;70.09
69009;SHT31;56065;52.472;13.380;2022-08-23T03:05:44;20.86;70.19
69009;SHT31;56065;52.472;13.380;2022-08-23T03:08:10;20.89;70.36
69009;SHT31;56065;52.472;13.380;2022-08-23T03:10:36;20.86;70.49
69009;SHT31;56065;52.472;13.380;2022-08-23T03:13:02;20.85;70.43
69009;SHT31;56065;52.472;13.380;2022-08-23T03:15:28;20.81;70.42
69009;SHT31;56065;52.472;13.380;2022-08-23T03:17:53;20.81;70.55
69009;SHT31;56065;52.472;13.380;2022-08-23T03:20:19;20.85;70.44
69009;SHT31;56065;52.472;13.380;2022-08-23T03:22:44;20.81;70.91
69009;SHT31;56065;52.472;13.380;2022-08-23T03:25:10;20.84;70.84
69009;SHT31;56065;52.472;13.380;2022-08-23T03:27:35;20.84;70.84
69009;SHT31;56065;52.472;13.380;2022-08-23T03:30:03;20.84;70.84
69009;SHT31;56065;52.472;13.380;2022-08-23T03:32:28;20.82;70.81
69009;SHT31;56065;52.472;13.380;2022-08-23T03:34:54;20.81;70.92
69009;SHT31;56065;52.472;13.380;2022-08-23T03:37:20;20.79;70.85
69009;SHT31;56065;52.472;13.380;2022-08-23T03:39:45;20.82;71.06
69009;SHT31;56065;52.472;13.380;2022-08-23T03:42:11;20.81;71.15
69009;SHT31;56065;52.472;13.380;2022-08-23T03:44:36;20.79;71.25
69009;SHT31;56065;52.472;13.380;2022-08-23T03:47:02;20.82;71.14
69009;SHT31;56065;52.472;13.380;2022-08-23T03:49:30;20.81;71.24
69009;SHT31;56065;52.472;13.380;2022-08-23T03:51:55;20.79;71.37
69009;SHT31;56065;52.472;13.380;2022-08-23T03:54:21;20.79;71.44
69009;SHT31;56065;52.472;13.380;2022-08-23T03:56:58;20.75;71.55
69009;SHT31;56065;52.472;13.380;2022-08-23T03:59:25;20.76;71.67
69009;SHT31;56065;52.472;13.380;2022-08-23T04:01:51;20.78;71.59
69009;SHT31;56065;52.472;13.380;2022-08-23T04:04:16;20.78;71.76
69009;SHT31;56065;52.472;13.380;2022-08-23T04:06:42;20.78;71.58
69009;SHT31;56065;52.472;13.380;2022-08-23T04:09:10;20.82;71.61
69009;SHT31;56065;52.472;13.380;2022-08-23T04:11:35;20.81;71.64
69009;SHT31;56065;52.472;13.380;2022-08-23T04:14:00;20.82;71.65
69009;SHT31;56065;52.472;13.380;2022-08-23T04:16:26;20.81;71.63
69009;SHT31;56065;52.472;13.380;2022-08-23T04:18:53;20.81;71.74
69009;SHT31;56065;52.472;13.380;2022-08-23T04:21:19;20.79;71.81
69009;SHT31;56065;52.472;13.380;2022-08-23T04:23:46;20.82;72.00
69009;SHT31;56065;52.472;13.380;2022-08-23T04:26:12;20.82;71.93
69009;SHT31;56065;52.472;13.380;2022-08-23T04:28:37;20.84;71.86
69009;SHT31;56065;52.472;13.380;2022-08-23T04:31:03;20.89;71.83
69009;SHT31;56065;52.472;13.380;2022-08-23T04:33:30;20.86;71.78
69009;SHT31;56065;52.472;13.380;2022-08-23T04:35:58;20.88;71.78
69009;SHT31;56065;52.472;13.380;2022-08-23T04:38:23;20.88;71.74
69009;SHT31;56065;52.472;13.380;2022-08-23T04:40:49;20.88;71.77
69009;SHT31;56065;52.472;13.380;2022-08-23T04:43:33;20.89;71.60
69009;SHT31;56065;52.472;13.380;2022-08-23T04:45:58;20.91;71.70
69009;SHT31;56065;52.472;13.380;2022-08-23T04:48:24;20.91;71.87
69009;SHT31;56065;52.472;13.380;2022-08-23T04:50:50;20.91;71.83
69009;SHT31;56065;52.472;13.380;2022-08-23T04:53:16;20.92;71.82
69009;SHT31;56065;52.472;13.380;2022-08-23T04:55:42;20.95;71.74
69009;SHT31;56065;52.472;13.380;2022-08-23T04:58:07;20.95;71.76
69009;SHT31;56065;52.472;13.380;2022-08-23T05:00:33;20.96;71.74
69009;SHT31;56065;52.472;13.380;2022-08-23T05:02:58;20.99;71.64
69009;SHT31;56065;52.472;13.380;2022-08-23T05:05:24;20.98;71.77
69009;SHT31;56065;52.472;13.380;2022-08-23T05:07:51;20.99;71.68
69009;SHT31;56065;52.472;13.380;2022-08-23T05:10:16;21.00;71.65
69009;SHT31;56065;52.472;13.380;2022-08-23T05:12:42;21.02;71.80
69009;SHT31;56065;52.472;13.380;2022-08-23T05:15:08;20.94;71.95
69009;SHT31;56065;52.472;13.380;2022-08-23T05:17:34;20.98;71.97
69009;SHT31;56065;52.472;13.380;2022-08-23T05:20:00;20.89;72.00
69009;SHT31;56065;52.472;13.380;2022-08-23T05:22:25;20.96;72.18
69009;SHT31;56065;52.472;13.380;2022-08-23T05:24:51;21.00;72.16
69009;SHT31;56065;52.472;13.380;2022-08-23T05:27:16;21.05;72.09
69009;SHT31;56065;52.472;13.380;2022-08-23T05:29:42;21.09;71.87
69009;SHT31;56065;52.472;13.380;2022-08-23T05:32:07;21.15;71.76
69009;SHT31;56065;52.472;13.380;2022-08-23T05:34:32;21.19;71.72
69009;SHT31;56065;52.472;13.380;2022-08-23T05:36:58;21.25;71.69
69009;SHT31;56065;52.472;13.380;2022-08-23T05:39:23;21.32;71.58
69009;SHT31;56065;52.472;13.380;2022-08-23T05:41:49;21.40;71.51
69009;SHT31;56065;52.472;13.380;2022-08-23T05:44:14;21.51;71.31
69009;SHT31;56065;52.472;13.380;2022-08-23T05:46:40;21.61;71.21
69009;SHT31;56065;52.472;13.380;2022-08-23T05:49:06;21.80;70.86
69009;SHT31;56065;52.472;13.380;2022-08-23T05:51:33;21.87;70.87
69009;SHT31;56065;52.472;13.380;2022-08-23T05:54:01;22.00;70.49
69009;SHT31;56065;52.472;13.380;2022-08-23T05:56:34;22.01;70.40
69009;SHT31;56065;52.472;13.380;2022-08-23T05:59:03;22.08;70.36
69009;SHT31;56065;52.472;13.380;2022-08-23T06:01:31;22.19;70.25
69009;SHT31;56065;52.472;13.380;2022-08-23T06:04:01;22.31;70.07
69009;SHT31;56065;52.472;13.380;2022-08-23T06:06:26;22.45;70.15
69009;SHT31;56065;52.472;13.380;2022-08-23T06:08:52;22.65;69.67
69009;SHT31;56065;52.472;13.380;2022-08-23T06:11:20;22.82;69.59
69009;SHT31;56065;52.472;13.380;2022-08-23T06:13:52;22.99;69.41
69009;SHT31;56065;52.472;13.380;2022-08-23T06:16:21;23.17;68.81
69009;SHT31;56065;52.472;13.380;2022-08-23T06:18:48;23.26;68.40
69009;SHT31;56065;52.472;13.380;2022-08-23T06:21:14;23.23;68.10
69009;SHT31;56065;52.472;13.380;2022-08-23T06:23:40;23.18;67.95
69009;SHT31;56065;52.472;13.380;2022-08-23T06:28:36;23.14;67.91
69009;SHT31;56065;52.472;13.380;2022-08-23T06:31:01;23.11;67.88
69009;SHT31;56065;52.472;13.380;2022-08-23T06:33:27;23.14;67.96
69009;SHT31;56065;52.472;13.380;2022-08-23T06:36:07;23.17;67.53
69009;SHT31;56065;52.472;13.380;2022-08-23T06:38:34;23.27;67.83
69009;SHT31;56065;52.472;13.380;2022-08-23T06:41:08;23.38;67.20
69009;SHT31;56065;52.472;13.380;2022-08-23T06:43:35;23.58;67.08
69009;SHT31;56065;52.472;13.380;2022-08-23T06:46:18;23.74;65.58
69009;SHT31;56065;52.472;13.380;2022-08-23T06:48:45;23.98;65.84
69009;SHT31;56065;52.472;13.380;2022-08-23T06:51:22;24.08;65.53
69009;SHT31;56065;52.472;13.380;2022-08-23T06:53:48;24.19;65.25
69009;SHT31;56065;52.472;13.380;2022-08-23T06:56:13;24.23;65.49
69009;SHT31;56065;52.472;13.380;2022-08-23T06:58:42;24.32;65.26
69009;SHT31;56065;52.472;13.380;2022-08-23T07:01:50;24.33;64.79
69009;SHT31;56065;52.472;13.380;2022-08-23T07:04:24;24.44;64.96
69009;SHT31;56065;52.472;13.380;2022-08-23T07:06:50;24.50;64.49
69009;SHT31;56065;52.472;13.380;2022-08-23T07:09:16;24.61;64.29
69009;SHT31;56065;52.472;13.380;2022-08-23T07:11:43;24.60;64.21
69009;SHT31;56065;52.472;13.380;2022-08-23T07:14:12;24.57;64.44
69009;SHT31;56065;52.472;13.380;2022-08-23T07:16:42;24.64;64.33
69009;SHT31;56065;52.472;13.380;2022-08-23T07:19:08;24.70;64.28
69009;SHT31;56065;52.472;13.380;2022-08-23T07:21:35;24.78;64.10
69009;SHT31;56065;52.472;13.380;2022-08-23T07:24:00;24.85;63.96
69009;SHT31;56065;52.472;13.380;2022-08-23T07:26:27;24.92;64.35
69009;SHT31;56065;52.472;13.380;2022-08-23T07:28:52;24.94;64.08
69009;SHT31;56065;52.472;13.380;2022-08-23T07:31:30;25.03;63.61
69009;SHT31;56065;52.472;13.380;2022-08-23T07:33:58;25.24;63.25
69009;SHT31;56065;52.472;13.380;2022-08-23T07:36:25;25.42;62.81
69009;SHT31;56065;52.472;13.380;2022-08-23T07:38:52;25.55;62.69
69009;SHT31;56065;52.472;13.380;2022-08-23T07:41:18;25.75;62.33
69009;SHT31;56065;52.472;13.380;2022-08-23T07:43:45;26.01;61.88
69009;SHT31;56065;52.472;13.380;2022-08-23T07:46:11;26.28;61.65
69009;SHT31;56065;52.472;13.380;2022-08-23T07:48:37;26.44;60.87
69009;SHT31;56065;52.472;13.380;2022-08-23T07:51:08;26.56;60.59
69009;SHT31;56065;52.472;13.380;2022-08-23T07:53:34;26.75;60.24
69009;SHT31;56065;52.472;13.380;2022-08-23T07:56:06;26.82;60.43
69009;SHT31;56065;52.472;13.380;2022-08-23T07:58:32;26.86;59.83
69009;SHT31;56065;52.472;13.380;2022-08-23T08:01:08;27.00;59.61
69009;SHT31;56065;52.472;13.380;2022-08-23T08:03:37;27.15;59.69
69009;SHT31;56065;52.472;13.380;2022-08-23T08:06:12;27.12;59.43
69009;SHT31;56065;52.472;13.380;2022-08-23T08:08:39;27.05;59.58
69009;SHT31;56065;52.472;13.380;2022-08-23T08:11:06;27.09;59.49
69009;SHT31;56065;52.472;13.380;2022-08-23T08:13:33;27.22;59.82
69009;SHT31;56065;52.472;13.380;2022-08-23T08:15:59;27.30;59.28
69009;SHT31;56065;52.472;13.380;2022-08-23T08:18:25;27.32;58.47
69009;SHT31;56065;52.472;13.380;2022-08-23T08:20:50;27.30;58.54
69009;SHT31;56065;52.472;13.380;2022-08-23T08:23:16;27.47;58.30
69009;SHT31;56065;52.472;13.380;2022-08-23T08:25:42;27.54;58.12
69009;SHT31;56065;52.472;13.380;2022-08-23T08:28:07;27.68;57.98
69009;SHT31;56065;52.472;13.380;2022-08-23T08:30:32;27.95;57.32
69009;SHT31;56065;52.472;13.380;2022-08-23T08:32:58;28.16;57.28
69009;SHT31;56065;52.472;13.380;2022-08-23T08:35:23;28.35;56.49
69009;SHT31;56065;52.472;13.380;2022-08-23T08:37:49;28.49;55.49
69009;SHT31;56065;52.472;13.380;2022-08-23T08:40:17;28.60;55.49
69009;SHT31;56065;52.472;13.380;2022-08-23T08:45:19;28.76;54.75
69009;SHT31;56065;52.472;13.380;2022-08-23T08:47:59;28.79;54.61
69009;SHT31;56065;52.472;13.380;2022-08-23T08:50:36;28.93;54.64
69009;SHT31;56065;52.472;13.380;2022-08-23T08:53:12;29.00;54.21
69009;SHT31;56065;52.472;13.380;2022-08-23T08:55:46;28.94;53.62
69009;SHT31;56065;52.472;13.380;2022-08-23T08:58:24;28.83;53.39
69009;SHT31;56065;52.472;13.380;2022-08-23T09:00:50;28.87;53.51
69009;SHT31;56065;52.472;13.380;2022-08-23T09:03:18;28.99;53.98
69009;SHT31;56065;52.472;13.380;2022-08-23T09:06:00;29.00;53.58
69009;SHT31;56065;52.472;13.380;2022-08-23T09:08:53;29.04;53.52
69009;SHT31;56065;52.472;13.380;2022-08-23T09:11:40;28.94;53.25
69009;SHT31;56065;52.472;13.380;2022-08-23T09:14:41;28.92;53.02
69009;SHT31;56065;52.472;13.380;2022-08-23T09:17:20;28.82;53.53
69009;SHT31;56065;52.472;13.380;2022-08-23T09:19:49;28.83;54.14
69009;SHT31;56065;52.472;13.380;2022-08-23T09:22:23;28.90;53.66
69009;SHT31;56065;52.472;13.380;2022-08-23T09:24:50;28.96;53.80
69009;SHT31;56065;52.472;13.380;2022-08-23T09:27:16;29.17;53.21
69009;SHT31;56065;52.472;13.380;2022-08-23T09:29:55;29.48;53.39
69009;SHT31;56065;52.472;13.380;2022-08-23T09:32:35;29.79;52.45
69009;SHT31;56065;52.472;13.380;2022-08-23T09:35:30;29.95;52.03
69009;SHT31;56065;52.472;13.380;2022-08-23T09:37:57;30.03;52.31
69009;SHT31;56065;52.472;13.380;2022-08-23T09:40:43;30.05;51.86
69009;SHT31;56065;52.472;13.380;2022-08-23T09:43:12;30.12;51.35
69009;SHT31;56065;52.472;13.380;2022-08-23T09:45:56;30.17;50.95
69009;SHT31;56065;52.472;13.380;2022-08-23T09:51:36;30.09;51.25
69009;SHT31;56065;52.472;13.380;2022-08-23T09:54:20;30.17;51.95
69009;SHT31;56065;52.472;13.380;2022-08-23T09:56:59;30.22;51.10
69009;SHT31;56065;52.472;13.380;2022-08-23T10:01:51;30.43;50.98
69009;SHT31;56065;52.472;13.380;2022-08-23T10:04:29;30.43;50.18
69009;SHT31;56065;52.472;13.380;2022-08-23T10:06:55;30.63;50.00
69009;SHT31;56065;52.472;13.380;2022-08-23T10:09:31;30.43;50.00
69009;SHT31;56065;52.472;13.380;2022-08-23T10:11:58;30.39;50.33
69009;SHT31;56065;52.472;13.380;2022-08-23T10:14:26;30.37;49.90
69009;SHT31;56065;52.472;13.380;2022-08-23T10:19:43;30.53;49.54
69009;SHT31;56065;52.472;13.380;2022-08-23T10:22:22;30.59;48.86
69009;SHT31;56065;52.472;13.380;2022-08-23T10:25:09;30.83;48.52
69009;SHT31;56065;52.472;13.380;2022-08-23T10:27:49;31.18;47.92
69009;SHT31;56065;52.472;13.380;2022-08-23T10:33:25;32.75;46.09
69009;SHT31;56065;52.472;13.380;2022-08-23T10:36:12;33.43;44.77
69009;SHT31;56065;52.472;13.380;2022-08-23T10:39:10;34.00;43.27
69009;SHT31;56065;52.472;13.380;2022-08-23T10:44:43;34.21;42.14
69009;SHT31;56065;52.472;13.380;2022-08-23T10:49:59;34.00;42.28
69009;SHT31;56065;52.472;13.380;2022-08-23T10:52:45;33.81;43.75
69009;SHT31;56065;52.472;13.380;2022-08-23T10:55:20;33.84;42.53
69009;SHT31;56065;52.472;13.380;2022-08-23T10:58:01;34.07;42.58
69009;SHT31;56065;52.472;13.380;2022-08-23T11:00:27;34.28;42.37
69009;SHT31;56065;52.472;13.380;2022-08-23T11:05:28;34.79;41.77
69009;SHT31;56065;52.472;13.380;2022-08-23T11:10:33;34.38;41.11
69009;SHT31;56065;52.472;13.380;2022-08-23T11:20:57;33.54;42.68
69009;SHT31;56065;52.472;13.380;2022-08-23T11:26:06;33.69;42.17
69009;SHT31;56065;52.472;13.380;2022-08-23T11:28:44;33.90;41.72
69009;SHT31;56065;52.472;13.380;2022-08-23T11:33:45;34.42;40.95
69009;SHT31;56065;52.472;13.380;2022-08-23T11:36:16;34.76;40.86
69009;SHT31;56065;52.472;13.380;2022-08-23T11:41:28;35.87;40.11
69009;SHT31;56065;52.472;13.380;2022-08-23T12:00:20;35.20;39.92
69009;SHT31;56065;52.472;13.380;2022-08-23T12:05:40;33.56;41.52
69009;SHT31;56065;52.472;13.380;2022-08-23T12:16:24;33.37;41.81
69009;SHT31;56065;52.472;13.380;2022-08-23T12:18:54;34.76;41.17
69009;SHT31;56065;52.472;13.380;2022-08-23T12:21:26;36.31;40.10
69009;SHT31;56065;52.472;13.380;2022-08-23T12:23:56;36.57;38.78
69009;SHT31;56065;52.472;13.380;2022-08-23T12:28:53;36.70;36.90
69009;SHT31;56065;52.472;13.380;2022-08-23T12:31:32;36.73;37.07
69009;SHT31;56065;52.472;13.380;2022-08-23T12:34:07;36.77;36.81
69009;SHT31;56065;52.472;13.380;2022-08-23T12:39:26;36.93;36.48
69009;SHT31;56065;52.472;13.380;2022-08-23T12:42:03;38.01;35.97
69009;SHT31;56065;52.472;13.380;2022-08-23T12:44:30;38.30;34.98
69009;SHT31;56065;52.472;13.380;2022-08-23T12:46:56;37.54;34.94
69009;SHT31;56065;52.472;13.380;2022-08-23T12:49:34;36.32;35.94
69009;SHT31;56065;52.472;13.380;2022-08-23T12:52:10;35.97;36.59
69009;SHT31;56065;52.472;13.380;2022-08-23T12:54:44;36.43;36.83
69009;SHT31;56065;52.472;13.380;2022-08-23T12:57:14;37.13;36.04
69009;SHT31;56065;52.472;13.380;2022-08-23T13:02:30;38.98;34.66
69009;SHT31;56065;52.472;13.380;2022-08-23T13:05:14;39.65;33.92
69009;SHT31;56065;52.472;13.380;2022-08-23T13:07:42;39.28;34.04
69009;SHT31;56065;52.472;13.380;2022-08-23T13:10:09;38.36;34.82
69009;SHT31;56065;52.472;13.380;2022-08-23T13:12:35;38.18;35.29
69009;SHT31;56065;52.472;13.380;2022-08-23T13:15:02;38.30;35.18
69009;SHT31;56065;52.472;13.380;2022-08-23T13:17:34;37.78;35.18
69009;SHT31;56065;52.472;13.380;2022-08-23T13:20:22;36.68;36.07
69009;SHT31;56065;52.472;13.380;2022-08-23T13:23:04;35.92;36.37
69009;SHT31;56065;52.472;13.380;2022-08-23T13:25:36;35.26;36.77
69009;SHT31;56065;52.472;13.380;2022-08-23T13:28:24;34.72;36.92
69009;SHT31;56065;52.472;13.380;2022-08-23T13:31:01;34.27;37.93
69009;SHT31;56065;52.472;13.380;2022-08-23T13:33:27;33.76;38.51
69009;SHT31;56065;52.472;13.380;2022-08-23T13:36:13;34.27;38.70
69009;SHT31;56065;52.472;13.380;2022-08-23T13:38:40;35.29;37.94
69009;SHT31;56065;52.472;13.380;2022-08-23T13:41:08;36.02;36.75
69009;SHT31;56065;52.472;13.380;2022-08-23T13:46:15;36.83;34.72
69009;SHT31;56065;52.472;13.380;2022-08-23T13:51:28;38.05;33.42
69009;SHT31;56065;52.472;13.380;2022-08-23T13:53:56;38.59;33.57
69009;SHT31;56065;52.472;13.380;2022-08-23T13:56:22;38.87;32.31
69009;SHT31;56065;52.472;13.380;2022-08-23T13:58:59;39.11;32.89
69009;SHT31;56065;52.472;13.380;2022-08-23T14:01:26;39.35;32.90
69009;SHT31;56065;52.472;13.380;2022-08-23T14:03:52;39.29;32.58
69009;SHT31;56065;52.472;13.380;2022-08-23T14:06:18;38.78;32.57
69009;SHT31;56065;52.472;13.380;2022-08-23T14:08:43;37.84;32.54
69009;SHT31;56065;52.472;13.380;2022-08-23T14:11:10;36.86;34.17
69009;SHT31;56065;52.472;13.380;2022-08-23T14:13:37;36.28;35.03
69009;SHT31;56065;52.472;13.380;2022-08-23T14:16:06;35.80;35.24
69009;SHT31;56065;52.472;13.380;2022-08-23T14:18:32;35.43;36.12
69009;SHT31;56065;52.472;13.380;2022-08-23T14:20:58;34.71;36.87
69009;SHT31;56065;52.472;13.380;2022-08-23T14:23:23;34.18;37.38
69009;SHT31;56065;52.472;13.380;2022-08-23T14:25:52;33.66;38.63
69009;SHT31;56065;52.472;13.380;2022-08-23T14:28:19;33.16;39.46
69009;SHT31;56065;52.472;13.380;2022-08-23T14:30:45;32.72;40.08
69009;SHT31;56065;52.472;13.380;2022-08-23T14:33:12;32.38;40.34
69009;SHT31;56065;52.472;13.380;2022-08-23T14:35:37;31.82;41.72
69009;SHT31;56065;52.472;13.380;2022-08-23T14:38:03;31.65;41.95
69009;SHT31;56065;52.472;13.380;2022-08-23T14:40:28;31.66;42.55
69009;SHT31;56065;52.472;13.380;2022-08-23T14:42:54;32.16;42.81
69009;SHT31;56065;52.472;13.380;2022-08-23T14:45:20;32.65;41.89
69009;SHT31;56065;52.472;13.380;2022-08-23T14:47:45;32.85;42.01
69009;SHT31;56065;52.472;13.380;2022-08-23T14:50:12;32.99;41.65
69009;SHT31;56065;52.472;13.380;2022-08-23T14:52:41;32.71;41.57
69009;SHT31;56065;52.472;13.380;2022-08-23T14:55:08;32.23;41.88
69009;SHT31;56065;52.472;13.380;2022-08-23T14:57:34;31.82;42.84
69009;SHT31;56065;52.472;13.380;2022-08-23T15:00:00;31.45;43.22
69009;SHT31;56065;52.472;13.380;2022-08-23T15:02:26;31.16;43.65
69009;SHT31;56065;52.472;13.380;2022-08-23T15:04:52;30.84;43.71
69009;SHT31;56065;52.472;13.380;2022-08-23T15:07:18;30.63;44.31
69009;SHT31;56065;52.472;13.380;2022-08-23T15:09:45;30.40;45.34
69009;SHT31;56065;52.472;13.380;2022-08-23T15:12:11;30.32;45.59
69009;SHT31;56065;52.472;13.380;2022-08-23T15:14:36;30.70;45.99
69009;SHT31;56065;52.472;13.380;2022-08-23T15:17:02;31.19;45.66
69009;SHT31;56065;52.472;13.380;2022-08-23T15:19:29;31.50;45.14
69009;SHT31;56065;52.472;13.380;2022-08-23T15:21:54;31.52;44.66
69009;SHT31;56065;52.472;13.380;2022-08-23T15:24:20;31.34;44.58
69009;SHT31;56065;52.472;13.380;2022-08-23T15:26:45;31.04;45.20
69009;SHT31;56065;52.472;13.380;2022-08-23T15:29:10;30.83;44.83
69009;SHT31;56065;52.472;13.380;2022-08-23T15:31:36;30.70;44.88
69009;SHT31;56065;52.472;13.380;2022-08-23T15:34:01;30.53;45.15
69009;SHT31;56065;52.472;13.380;2022-08-23T15:36:27;30.57;45.81
69009;SHT31;56065;52.472;13.380;2022-08-23T15:38:53;30.57;45.84
69009;SHT31;56065;52.472;13.380;2022-08-23T15:41:19;30.52;45.75
69009;SHT31;56065;52.472;13.380;2022-08-23T15:43:45;30.56;45.65
69009;SHT31;56065;52.472;13.380;2022-08-23T15:46:16;30.30;45.77
69009;SHT31;56065;52.472;13.380;2022-08-23T15:48:46;30.13;46.38
69009;SHT31;56065;52.472;13.380;2022-08-23T15:51:14;30.22;46.60
69009;SHT31;56065;52.472;13.380;2022-08-23T15:53:41;30.36;46.82
69009;SHT31;56065;52.472;13.380;2022-08-23T15:56:09;30.46;46.85
69009;SHT31;56065;52.472;13.380;2022-08-23T15:58:36;30.54;46.42
69009;SHT31;56065;52.472;13.380;2022-08-23T16:01:01;30.60;46.34
69009;SHT31;56065;52.472;13.380;2022-08-23T16:03:27;30.54;46.19
69009;SHT31;56065;52.472;13.380;2022-08-23T16:05:52;30.41;46.63
69009;SHT31;56065;52.472;13.380;2022-08-23T16:08:24;30.26;46.98
69009;SHT31;56065;52.472;13.380;2022-08-23T16:10:50;30.15;46.77
69009;SHT31;56065;52.472;13.380;2022-08-23T16:13:16;29.98;47.35
69009;SHT31;56065;52.472;13.380;2022-08-23T16:15:42;29.88;47.41
69009;SHT31;56065;52.472;13.380;2022-08-23T16:18:08;29.68;47.54
69009;SHT31;56065;52.472;13.380;2022-08-23T16:20:33;29.43;47.80
69009;SHT31;56065;52.472;13.380;2022-08-23T16:22:58;29.24;47.87
69009;SHT31;56065;52.472;13.380;2022-08-23T16:25:24;29.03;48.66
69009;SHT31;56065;52.472;13.380;2022-08-23T16:27:50;28.80;48.86
69009;SHT31;56065;52.472;13.380;2022-08-23T16:30:15;28.57;49.71
69009;SHT31;56065;52.472;13.380;2022-08-23T16:32:41;28.46;49.61
69009;SHT31;56065;52.472;13.380;2022-08-23T16:35:07;28.32;49.88
69009;SHT31;56065;52.472;13.380;2022-08-23T16:37:32;28.19;50.52
69009;SHT31;56065;52.472;13.380;2022-08-23T16:39:58;28.02;50.49
69009;SHT31;56065;52.472;13.380;2022-08-23T16:42:23;27.90;50.33
69009;SHT31;56065;52.472;13.380;2022-08-23T16:44:49;27.77;50.48
69009;SHT31;56065;52.472;13.380;2022-08-23T16:47:14;27.67;50.64
69009;SHT31;56065;52.472;13.380;2022-08-23T16:49:41;27.49;51.05
69009;SHT31;56065;52.472;13.380;2022-08-23T16:52:08;27.46;51.54
69009;SHT31;56065;52.472;13.380;2022-08-23T16:54:35;27.36;51.72
69009;SHT31;56065;52.472;13.380;2022-08-23T16:57:01;27.20;52.00